sensor_id;sensor_type;location;lat;lon;timestamp;temperature;humidity
59999;DHT22;45859;51.378;6.736;2023-06-04T00:00:25;13.60;99.90
59999;DHT22;45859;51.378;6.736;2023-06-04T00:02:51;13.60;99.90
59999;DHT22;45859;51.378;6.736;2023-06-04T00:05:16;13.60;99.90
59999;DHT22;45859;51.378;6.736;2023-06-04T00:07:42;13.60;99.90
59999;DHT22;45859;51.378;6.736;2023-06-04T00:10:08;13.70;99.90
59999;DHT22;45859;51.378;6.736;2023-06-04T00:12:34;13.70;99.90
59999;DHT22;45859;51.378;6.736;2023-06-04T00:15:00;13.60;99.90
59999;DHT22;45859;51.378;6.736;2023-06-04T00:17:25;13.60;99.90
59999;DHT22;45859;51.378;6.736;2023-06-04T00:19:51;13.60;99.90
59999;DHT22;45859;51.378;6.736;2023-06-04T00:22:16;13.50;99.90
59999;DHT22;45859;51.378;6.736;2023-06-04T00:24:42;13.50;99.90
59999;DHT22;45859;51.378;6.736;2023-06-04T00:27:08;13.50;99.90
59999;DHT22;45859;51.378;6.736;2023-06-04T00:29:34;13.50;99.90
59999;DHT22;45859;51.378;6.736;2023-06-04T00:32:00;13.50;99.90
59999;DHT22;45859;51.378;6.736;2023-06-04T00:34:25;13.50;99.90
59999;DHT22;45859;51.378;6.736;2023-06-04T00:36:51;13.40;99.90
59999;DHT22;45859;51.378;6.736;2023-06-04T00:39:17;13.40;99.90
59999;DHT22;45859;51.378;6.736;2023-06-04T00:41:42;13.40;99.90
59999;DHT22;45859;51.378;6.736;2023-06-04T00:44:08;13.20;99.90
59999;DHT22;45859;51.378;6.736;2023-06-04T00:46:35;13.20;99.90
59999;DHT22;45859;51.378;6.736;2023-06-04T00:49:01;13.10;99.90
59999;DHT22;45859;51.378;6.736;2023-06-04T00:51:30;13.10;99.90
59999;DHT22;45859;51.378;6.736;2023-06-04T00:53:56;13.20;99.90
59999;DHT22;45859;51.378;6.736;2023-06-04T00:56:21;13.20;99.90
59999;DHT22;45859;51.378;6.736;2023-06-04T00:58:47;13.20;99.90
59999;DHT22;45859;51.378;6.736;2023-06-04T01:04:27;13.10;99.90
59999;DHT22;45859;51.378;6.736;2023-06-04T01:06:57;13.00;99.90
59999;DHT22;45859;51.378;6.736;2023-06-04T01:09:26;13.00;99.90
59999;DHT22;45859;51.378;6.736;2023-06-04T01:11:53;13.00;99.90
59999;DHT22;45859;51.378;6.736;2023-06-04T01:14:19;13.00;99.90
59999;DHT22;45859;51.378;6.736;2023-06-04T01:16:52;12.90;99.90
59999;DHT22;45859;51.378;6.736;2023-06-04T01:22:24;13.00;99.90
59999;DHT22;45859;51.378;6.736;2023-06-04T01:24:59;13.00;99.90
59999;DHT22;45859;51.378;6.736;2023-06-04T01:27:28;12.90;99.90
59999;DHT22;45859;51.378;6.736;2023-06-04T01:29:54;12.90;99.90
59999;DHT22;45859;51.378;6.736;2023-06-04T01:32:23;12.80;99.90
59999;DHT22;45859;51.378;6.736;2023-06-04T01:34:48;12.70;99.90
59999;DHT22;45859;51.378;6.736;2023-06-04T01:37:14;12.70;99.90
59999;DHT22;45859;51.378;6.736;2023-06-04T01:39:42;12.70;99.90
59999;DHT22;45859;51.378;6.736;2023-06-04T01:42:08;12.70;99.90
59999;DHT22;45859;51.378;6.736;2023-06-04T01:44:34;12.60;99.90
59999;DHT22;45859;51.378;6.736;2023-06-04T01:47:00;12.70;99.90
59999;DHT22;45859;51.378;6.736;2023-06-04T01:49:25;12.60;99.90
59999;DHT22;45859;51.378;6.736;2023-06-04T01:51:51;12.70;99.90
59999;DHT22;45859;51.378;6.736;2023-06-04T01:54:16;12.70;99.90
59999;DHT22;45859;51.378;6.736;2023-06-04T01:56:43;12.60;99.90
59999;DHT22;45859;51.378;6.736;2023-06-04T01:59:08;12.60;99.90
59999;DHT22;45859;51.378;6.736;2023-06-04T02:01:37;12.60;99.90
59999;DHT22;45859;51.378;6.736;2023-06-04T02:04:03;12.60;99.90
59999;DHT22;45859;51.378;6.736;2023-06-04T02:06:29;12.50;99.90
59999;DHT22;45859;51.378;6.736;2023-06-04T02:08:55;12.60;99.90
59999;DHT22;45859;51.378;6.736;2023-06-04T02:11:21;12.40;99.90
59999;DHT22;45859;51.378;6.736;2023-06-04T02:13:47;12.40;99.90
59999;DHT22;45859;51.378;6.736;2023-06-04T02:16:13;12.30;99.90
59999;DHT22;45859;51.378;6.736;2023-06-04T02:18:38;12.30;99.90
59999;DHT22;45859;51.378;6.736;2023-06-04T02:21:04;12.30;99.90
59999;DHT22;45859;51.378;6.736;2023-06-04T02:23:30;12.30;99.90
59999;DHT22;45859;51.378;6.736;2023-06-04T02:25:55;12.30;99.90
59999;DHT22;45859;51.378;6.736;2023-06-04T02:28:21;12.20;99.90
59999;DHT22;45859;51.378;6.736;2023-06-04T02:30:47;12.10;99.90
59999;DHT22;45859;51.378;6.736;2023-06-04T02:33:13;12.00;99.90
59999;DHT22;45859;51.378;6.736;2023-06-04T02:35:39;12.10;99.90
59999;DHT22;45859;51.378;6.736;2023-06-04T02:38:05;12.10;99.90
59999;DHT22;45859;51.378;6.736;2023-06-04T02:40:31;12.10;99.90
59999;DHT22;45859;51.378;6.736;2023-06-04T02:42:57;12.00;99.90
59999;DHT22;45859;51.378;6.736;2023-06-04T02:45:23;12.00;99.90
59999;DHT22;45859;51.378;6.736;2023-06-04T02:47:48;12.10;99.90
59999;DHT22;45859;51.378;6.736;2023-06-04T02:50:14;11.90;99.90
59999;DHT22;45859;51.378;6.736;2023-06-04T02:52:44;11.90;99.90
59999;DHT22;45859;51.378;6.736;2023-06-04T02:55:10;11.90;99.90
59999;DHT22;45859;51.378;6.736;2023-06-04T02:57:39;11.80;99.90
59999;DHT22;45859;51.378;6.736;2023-06-04T03:00:06;11.80;99.90
59999;DHT22;45859;51.378;6.736;2023-06-04T03:02:43;11.80;99.90
59999;DHT22;45859;51.378;6.736;2023-06-04T03:05:13;11.70;99.90
59999;DHT22;45859;51.378;6.736;2023-06-04T03:07:40;11.80;99.90
59999;DHT22;45859;51.378;6.736;2023-06-04T03:10:08;11.80;99.90
59999;DHT22;45859;51.378;6.736;2023-06-04T03:12:34;11.70;99.90
59999;DHT22;45859;51.378;6.736;2023-06-04T03:15:00;11.70;99.90
59999;DHT22;45859;51.378;6.736;2023-06-04T03:17:26;11.90;99.90
59999;DHT22;45859;51.378;6.736;2023-06-04T03:19:52;12.10;99.90
59999;DHT22;45859;51.378;6.736;2023-06-04T03:22:17;11.70;99.90
59999;DHT22;45859;51.378;6.736;2023-06-04T03:24:43;12.20;99.90
59999;DHT22;45859;51.378;6.736;2023-06-04T03:27:10;11.70;99.90
59999;DHT22;45859;51.378;6.736;2023-06-04T03:29:36;11.60;99.90
59999;DHT22;45859;51.378;6.736;2023-06-04T03:32:03;11.60;99.90
59999;DHT22;45859;51.378;6.736;2023-06-04T03:34:29;11.60;99.90
59999;DHT22;45859;51.378;6.736;2023-06-04T03:36:57;11.60;99.90
59999;DHT22;45859;51.378;6.736;2023-06-04T03:39:23;11.60;99.90
59999;DHT22;45859;51.378;6.736;2023-06-04T03:41:49;11.60;99.90
59999;DHT22;45859;51.378;6.736;2023-06-04T03:44:15;11.50;99.90
59999;DHT22;45859;51.378;6.736;2023-06-04T03:46:42;11.40;99.90
59999;DHT22;45859;51.378;6.736;2023-06-04T03:49:09;11.80;99.90
59999;DHT22;45859;51.378;6.736;2023-06-04T03:51:36;11.80;99.90
59999;DHT22;45859;51.378;6.736;2023-06-04T03:54:02;11.60;99.90
59999;DHT22;45859;51.378;6.736;2023-06-04T03:59:06;11.60;99.90
59999;DHT22;45859;51.378;6.736;2023-06-04T04:01:32;11.70;99.90
59999;DHT22;45859;51.378;6.736;2023-06-04T04:03:58;11.80;99.90
59999;DHT22;45859;51.378;6.736;2023-06-04T04:06:24;11.80;99.90
59999;DHT22;45859;51.378;6.736;2023-06-04T04:08:50;11.80;99.90
59999;DHT22;45859;51.378;6.736;2023-06-04T04:11:16;11.80;99.90
59999;DHT22;45859;51.378;6.736;2023-06-04T04:13:44;11.90;99.90
59999;DHT22;45859;51.378;6.736;2023-06-04T04:16:11;11.90;99.90
59999;DHT22;45859;51.378;6.736;2023-06-04T04:18:37;12.00;99.90
59999;DHT22;45859;51.378;6.736;2023-06-04T04:21:03;12.00;99.90
59999;DHT22;45859;51.378;6.736;2023-06-04T04:23:30;12.00;99.90
59999;DHT22;45859;51.378;6.736;2023-06-04T04:25:58;12.10;99.90
59999;DHT22;45859;51.378;6.736;2023-06-04T04:28:27;12.20;99.90
59999;DHT22;45859;51.378;6.736;2023-06-04T04:30:54;12.20;99.90
59999;DHT22;45859;51.378;6.736;2023-06-04T04:33:25;12.20;99.90
59999;DHT22;45859;51.378;6.736;2023-06-04T04:35:51;12.30;99.90
59999;DHT22;45859;51.378;6.736;2023-06-04T04:38:21;12.30;99.90
59999;DHT22;45859;51.378;6.736;2023-06-04T04:40:50;12.40;99.90
59999;DHT22;45859;51.378;6.736;2023-06-04T04:45:55;12.50;99.90
59999;DHT22;45859;51.378;6.736;2023-06-04T04:48:21;12.60;99.90
59999;DHT22;45859;51.378;6.736;2023-06-04T04:50:47;12.70;99.90
59999;DHT22;45859;51.378;6.736;2023-06-04T04:53:12;12.70;99.90
59999;DHT22;45859;51.378;6.736;2023-06-04T04:55:38;12.80;99.90
59999;DHT22;45859;51.378;6.736;2023-06-04T04:58:04;12.90;99.90
59999;DHT22;45859;51.378;6.736;2023-06-04T05:00:29;12.90;99.90
59999;DHT22;45859;51.378;6.736;2023-06-04T05:02:56;13.10;99.90
59999;DHT22;45859;51.378;6.736;2023-06-04T05:05:21;13.20;99.90
59999;DHT22;45859;51.378;6.736;2023-06-04T05:07:47;13.20;99.90
59999;DHT22;45859;51.378;6.736;2023-06-04T05:10:13;13.40;99.90
59999;DHT22;45859;51.378;6.736;2023-06-04T05:12:38;13.50;99.90
59999;DHT22;45859;51.378;6.736;2023-06-04T05:15:04;13.60;99.90
59999;DHT22;45859;51.378;6.736;2023-06-04T05:17:30;13.60;99.90
59999;DHT22;45859;51.378;6.736;2023-06-04T05:19:56;13.70;99.90
59999;DHT22;45859;51.378;6.736;2023-06-04T05:22:37;13.90;99.90
59999;DHT22;45859;51.378;6.736;2023-06-04T05:25:03;13.90;99.90
59999;DHT22;45859;51.378;6.736;2023-06-04T05:27:29;13.90;99.90
59999;DHT22;45859;51.378;6.736;2023-06-04T05:29:57;14.20;99.90
59999;DHT22;45859;51.378;6.736;2023-06-04T05:32:22;14.20;99.90
59999;DHT22;45859;51.378;6.736;2023-06-04T05:34:49;14.50;99.90
59999;DHT22;45859;51.378;6.736;2023-06-04T05:37:14;14.70;99.90
59999;DHT22;45859;51.378;6.736;2023-06-04T05:39:42;15.00;99.90
59999;DHT22;45859;51.378;6.736;2023-06-04T05:42:08;15.10;99.90
59999;DHT22;45859;51.378;6.736;2023-06-04T05:44:35;15.20;99.90
59999;DHT22;45859;51.378;6.736;2023-06-04T05:47:00;15.30;99.90
59999;DHT22;45859;51.378;6.736;2023-06-04T05:49:26;15.30;99.90
59999;DHT22;45859;51.378;6.736;2023-06-04T05:51:52;15.60;99.90
59999;DHT22;45859;51.378;6.736;2023-06-04T05:54:18;15.50;99.90
59999;DHT22;45859;51.378;6.736;2023-06-04T05:56:44;16.40;99.90
59999;DHT22;45859;51.378;6.736;2023-06-04T05:59:10;17.20;99.90
59999;DHT22;45859;51.378;6.736;2023-06-04T06:01:35;18.30;99.90
59999;DHT22;45859;51.378;6.736;2023-06-04T06:04:01;19.20;99.90
59999;DHT22;45859;51.378;6.736;2023-06-04T06:06:27;20.00;99.90
59999;DHT22;45859;51.378;6.736;2023-06-04T06:08:53;20.80;99.90
59999;DHT22;45859;51.378;6.736;2023-06-04T06:11:19;20.40;99.90
59999;DHT22;45859;51.378;6.736;2023-06-04T06:13:46;20.90;99.90
59999;DHT22;45859;51.378;6.736;2023-06-04T06:16:12;21.50;99.90
59999;DHT22;45859;51.378;6.736;2023-06-04T06:18:37;21.30;99.90
59999;DHT22;45859;51.378;6.736;2023-06-04T06:21:03;21.20;99.90
59999;DHT22;45859;51.378;6.736;2023-06-04T06:23:29;21.20;99.90
59999;DHT22;45859;51.378;6.736;2023-06-04T06:25:54;21.90;99.90
59999;DHT22;45859;51.378;6.736;2023-06-04T06:28:20;22.70;99.90
59999;DHT22;45859;51.378;6.736;2023-06-04T06:30:47;22.90;99.90
59999;DHT22;45859;51.378;6.736;2023-06-04T06:33:13;23.50;99.90
59999;DHT22;45859;51.378;6.736;2023-06-04T06:35:39;23.70;99.90
59999;DHT22;45859;51.378;6.736;2023-06-04T06:38:05;23.80;99.90
59999;DHT22;45859;51.378;6.736;2023-06-04T06:40:30;24.50;99.90
59999;DHT22;45859;51.378;6.736;2023-06-04T06:42:56;24.60;99.90
59999;DHT22;45859;51.378;6.736;2023-06-04T06:45:22;24.90;99.90
59999;DHT22;45859;51.378;6.736;2023-06-04T06:47:48;24.60;99.90
59999;DHT22;45859;51.378;6.736;2023-06-04T06:50:13;24.60;99.90
59999;DHT22;45859;51.378;6.736;2023-06-04T06:52:39;24.00;99.90
59999;DHT22;45859;51.378;6.736;2023-06-04T06:55:06;24.40;99.90
59999;DHT22;45859;51.378;6.736;2023-06-04T06:57:33;23.50;99.90
59999;DHT22;45859;51.378;6.736;2023-06-04T06:59:59;23.50;99.90
59999;DHT22;45859;51.378;6.736;2023-06-04T07:02:24;23.50;99.90
59999;DHT22;45859;51.378;6.736;2023-06-04T07:04:50;24.00;99.90
59999;DHT22;45859;51.378;6.736;2023-06-04T07:07:16;24.30;99.90
59999;DHT22;45859;51.378;6.736;2023-06-04T07:09:42;24.50;99.90
59999;DHT22;45859;51.378;6.736;2023-06-04T07:12:08;25.30;99.90
59999;DHT22;45859;51.378;6.736;2023-06-04T07:14:34;25.50;99.90
59999;DHT22;45859;51.378;6.736;2023-06-04T07:16:59;25.90;99.90
59999;DHT22;45859;51.378;6.736;2023-06-04T07:19:25;25.60;99.90
59999;DHT22;45859;51.378;6.736;2023-06-04T07:21:54;26.20;99.90
59999;DHT22;45859;51.378;6.736;2023-06-04T07:24:21;26.00;99.90
59999;DHT22;45859;51.378;6.736;2023-06-04T07:26:47;26.10;99.90
59999;DHT22;45859;51.378;6.736;2023-06-04T07:29:13;26.50;99.90
59999;DHT22;45859;51.378;6.736;2023-06-04T07:31:38;26.40;99.90
59999;DHT22;45859;51.378;6.736;2023-06-04T07:34:04;28.00;99.90
59999;DHT22;45859;51.378;6.736;2023-06-04T07:36:30;27.60;99.90
59999;DHT22;45859;51.378;6.736;2023-06-04T07:38:56;28.10;99.90
59999;DHT22;45859;51.378;6.736;2023-06-04T07:41:22;27.80;99.90
59999;DHT22;45859;51.378;6.736;2023-06-04T07:43:48;28.00;99.90
59999;DHT22;45859;51.378;6.736;2023-06-04T07:46:13;29.10;99.90
59999;DHT22;45859;51.378;6.736;2023-06-04T07:48:44;29.60;99.90
59999;DHT22;45859;51.378;6.736;2023-06-04T07:51:10;30.40;99.90
59999;DHT22;45859;51.378;6.736;2023-06-04T07:53:37;30.50;99.90
59999;DHT22;45859;51.378;6.736;2023-06-04T07:56:03;29.40;99.90
59999;DHT22;45859;51.378;6.736;2023-06-04T07:58:29;30.20;99.90
59999;DHT22;45859;51.378;6.736;2023-06-04T08:00:55;28.40;99.90
59999;DHT22;45859;51.378;6.736;2023-06-04T08:03:21;28.30;99.90
59999;DHT22;45859;51.378;6.736;2023-06-04T08:05:47;27.70;99.90
59999;DHT22;45859;51.378;6.736;2023-06-04T08:08:12;28.00;99.90
59999;DHT22;45859;51.378;6.736;2023-06-04T08:10:41;27.20;99.90
59999;DHT22;45859;51.378;6.736;2023-06-04T08:13:07;27.00;99.90
59999;DHT22;45859;51.378;6.736;2023-06-04T08:15:34;27.80;99.90
59999;DHT22;45859;51.378;6.736;2023-06-04T08:17:59;27.30;99.90
59999;DHT22;45859;51.378;6.736;2023-06-04T08:20:25;26.90;99.90
59999;DHT22;45859;51.378;6.736;2023-06-04T08:22:51;27.20;99.90
59999;DHT22;45859;51.378;6.736;2023-06-04T08:25:17;26.90;99.90
59999;DHT22;45859;51.378;6.736;2023-06-04T08:27:43;27.00;99.90
59999;DHT22;45859;51.378;6.736;2023-06-04T08:30:09;26.80;99.90
59999;DHT22;45859;51.378;6.736;2023-06-04T08:32:35;26.40;99.90
59999;DHT22;45859;51.378;6.736;2023-06-04T08:35:00;25.60;99.90
59999;DHT22;45859;51.378;6.736;2023-06-04T08:37:26;26.50;99.90
59999;DHT22;45859;51.378;6.736;2023-06-04T08:39:52;27.90;99.90
59999;DHT22;45859;51.378;6.736;2023-06-04T08:42:31;28.00;99.90
59999;DHT22;45859;51.378;6.736;2023-06-04T08:45:00;29.60;99.90
59999;DHT22;45859;51.378;6.736;2023-06-04T08:47:26;30.60;99.90
59999;DHT22;45859;51.378;6.736;2023-06-04T08:49:59;28.80;99.90
59999;DHT22;45859;51.378;6.736;2023-06-04T08:52:26;27.60;99.90
59999;DHT22;45859;51.378;6.736;2023-06-04T08:54:53;27.70;99.90
59999;DHT22;45859;51.378;6.736;2023-06-04T08:57:19;27.90;99.90
59999;DHT22;45859;51.378;6.736;2023-06-04T08:59:46;28.10;99.90
59999;DHT22;45859;51.378;6.736;2023-06-04T09:02:16;28.70;99.90
59999;DHT22;45859;51.378;6.736;2023-06-04T09:04:43;27.80;99.90
59999;DHT22;45859;51.378;6.736;2023-06-04T09:07:11;27.50;99.90
59999;DHT22;45859;51.378;6.736;2023-06-04T09:09:39;27.90;99.90
59999;DHT22;45859;51.378;6.736;2023-06-04T09:12:08;28.70;99.90
59999;DHT22;45859;51.378;6.736;2023-06-04T09:14:35;28.40;99.90
59999;DHT22;45859;51.378;6.736;2023-06-04T09:17:01;27.30;99.90
59999;DHT22;45859;51.378;6.736;2023-06-04T09:19:27;27.70;99.90
59999;DHT22;45859;51.378;6.736;2023-06-04T09:21:56;28.00;99.90
59999;DHT22;45859;51.378;6.736;2023-06-04T09:24:24;27.80;99.90
59999;DHT22;45859;51.378;6.736;2023-06-04T09:26:51;27.80;99.90
59999;DHT22;45859;51.378;6.736;2023-06-04T09:29:17;28.00;99.90
59999;DHT22;45859;51.378;6.736;2023-06-04T09:31:47;28.10;99.90
59999;DHT22;45859;51.378;6.736;2023-06-04T09:34:13;27.60;99.90
59999;DHT22;45859;51.378;6.736;2023-06-04T09:36:40;28.60;99.90
59999;DHT22;45859;51.378;6.736;2023-06-04T09:39:16;29.40;99.90
59999;DHT22;45859;51.378;6.736;2023-06-04T09:41:41;29.50;99.90
59999;DHT22;45859;51.378;6.736;2023-06-04T09:44:07;29.50;99.90
59999;DHT22;45859;51.378;6.736;2023-06-04T09:46:36;28.30;99.90
59999;DHT22;45859;51.378;6.736;2023-06-04T09:49:06;29.20;99.90
59999;DHT22;45859;51.378;6.736;2023-06-04T09:51:32;28.00;99.90
59999;DHT22;45859;51.378;6.736;2023-06-04T09:53:59;27.80;99.90
59999;DHT22;45859;51.378;6.736;2023-06-04T09:56:26;26.70;99.90
59999;DHT22;45859;51.378;6.736;2023-06-04T09:59:01;27.10;99.90
59999;DHT22;45859;51.378;6.736;2023-06-04T10:01:29;27.30;99.90
59999;DHT22;45859;51.378;6.736;2023-06-04T10:03:58;27.30;99.90
59999;DHT22;45859;51.378;6.736;2023-06-04T10:06:27;26.40;99.90
59999;DHT22;45859;51.378;6.736;2023-06-04T10:08:57;26.20;99.90
59999;DHT22;45859;51.378;6.736;2023-06-04T10:11:35;25.20;99.90
59999;DHT22;45859;51.378;6.736;2023-06-04T10:14:31;25.90;99.90
59999;DHT22;45859;51.378;6.736;2023-06-04T10:16:57;26.20;99.90
59999;DHT22;45859;51.378;6.736;2023-06-04T10:19:23;25.70;99.90
59999;DHT22;45859;51.378;6.736;2023-06-04T10:21:49;25.40;99.90
59999;DHT22;45859;51.378;6.736;2023-06-04T10:24:15;24.70;99.90
59999;DHT22;45859;51.378;6.736;2023-06-04T10:26:42;24.60;99.90
59999;DHT22;45859;51.378;6.736;2023-06-04T10:29:08;24.60;99.90
59999;DHT22;45859;51.378;6.736;2023-06-04T10:31:37;24.10;99.90
59999;DHT22;45859;51.378;6.736;2023-06-04T10:34:03;23.60;99.90
59999;DHT22;45859;51.378;6.736;2023-06-04T10:36:29;23.60;99.90
59999;DHT22;45859;51.378;6.736;2023-06-04T10:38:55;23.70;99.90
59999;DHT22;45859;51.378;6.736;2023-06-04T10:41:22;23.50;99.90
59999;DHT22;45859;51.378;6.736;2023-06-04T10:43:49;23.80;99.90
59999;DHT22;45859;51.378;6.736;2023-06-04T10:46:19;23.70;99.90
59999;DHT22;45859;51.378;6.736;2023-06-04T10:48:54;24.00;99.90
59999;DHT22;45859;51.378;6.736;2023-06-04T10:51:33;24.20;99.90
59999;DHT22;45859;51.378;6.736;2023-06-04T10:54:01;24.10;99.90
59999;DHT22;45859;51.378;6.736;2023-06-04T10:56:34;24.00;99.90
59999;DHT22;45859;51.378;6.736;2023-06-04T10:59:01;23.70;99.90
59999;DHT22;45859;51.378;6.736;2023-06-04T11:01:38;23.70;99.90
59999;DHT22;45859;51.378;6.736;2023-06-04T11:04:05;23.40;99.90
59999;DHT22;45859;51.378;6.736;2023-06-04T11:06:30;23.60;99.90
59999;DHT22;45859;51.378;6.736;2023-06-04T11:09:04;23.70;99.90
59999;DHT22;45859;51.378;6.736;2023-06-04T11:11:34;23.90;99.90
59999;DHT22;45859;51.378;6.736;2023-06-04T11:14:09;23.90;99.90
59999;DHT22;45859;51.378;6.736;2023-06-04T11:16:35;23.90;99.90
59999;DHT22;45859;51.378;6.736;2023-06-04T11:19:01;23.50;99.90
59999;DHT22;45859;51.378;6.736;2023-06-04T11:21:27;23.40;99.90
59999;DHT22;45859;51.378;6.736;2023-06-04T11:24:00;23.20;99.90
59999;DHT22;45859;51.378;6.736;2023-06-04T11:26:36;23.10;99.90
59999;DHT22;45859;51.378;6.736;2023-06-04T11:29:06;23.20;99.90
59999;DHT22;45859;51.378;6.736;2023-06-04T11:31:44;23.10;99.90
59999;DHT22;45859;51.378;6.736;2023-06-04T11:34:10;22.80;99.90
59999;DHT22;45859;51.378;6.736;2023-06-04T11:36:39;22.70;99.90
59999;DHT22;45859;51.378;6.736;2023-06-04T11:39:05;22.60;99.90
59999;DHT22;45859;51.378;6.736;2023-06-04T11:41:35;22.60;99.90
59999;DHT22;45859;51.378;6.736;2023-06-04T11:44:03;22.70;99.90
59999;DHT22;45859;51.378;6.736;2023-06-04T11:46:32;22.60;99.90
59999;DHT22;45859;51.378;6.736;2023-06-04T11:48:58;22.60;99.90
59999;DHT22;45859;51.378;6.736;2023-06-04T11:51:24;22.40;99.90
59999;DHT22;45859;51.378;6.736;2023-06-04T11:53:50;22.50;99.90
59999;DHT22;45859;51.378;6.736;2023-06-04T11:56:16;22.80;99.90
59999;DHT22;45859;51.378;6.736;2023-06-04T11:58:42;22.50;99.90
59999;DHT22;45859;51.378;6.736;2023-06-04T12:01:08;22.70;99.90
59999;DHT22;45859;51.378;6.736;2023-06-04T12:03:39;22.80;99.90
59999;DHT22;45859;51.378;6.736;2023-06-04T12:06:19;22.70;99.90
59999;DHT22;45859;51.378;6.736;2023-06-04T12:08:53;22.90;99.90
59999;DHT22;45859;51.378;6.736;2023-06-04T12:11:32;23.20;99.90
59999;DHT22;45859;51.378;6.736;2023-06-04T12:14:04;23.00;99.90
59999;DHT22;45859;51.378;6.736;2023-06-04T12:16:31;23.00;99.90
59999;DHT22;45859;51.378;6.736;2023-06-04T12:19:10;22.90;99.90
59999;DHT22;45859;51.378;6.736;2023-06-04T12:21:37;22.90;99.90
59999;DHT22;45859;51.378;6.736;2023-06-04T12:24:08;22.90;99.90
59999;DHT22;45859;51.378;6.736;2023-06-04T12:26:34;23.00;99.90
59999;DHT22;45859;51.378;6.736;2023-06-04T12:29:08;23.00;99.90
59999;DHT22;45859;51.378;6.736;2023-06-04T12:31:36;22.80;99.90
59999;DHT22;45859;51.378;6.736;2023-06-04T12:34:01;22.70;99.90
59999;DHT22;45859;51.378;6.736;2023-06-04T12:36:27;22.80;99.90
59999;DHT22;45859;51.378;6.736;2023-06-04T12:38:58;22.90;99.90
59999;DHT22;45859;51.378;6.736;2023-06-04T12:41:28;22.90;99.90
59999;DHT22;45859;51.378;6.736;2023-06-04T12:43:55;22.90;99.90
59999;DHT22;45859;51.378;6.736;2023-06-04T12:46:25;22.80;99.90
59999;DHT22;45859;51.378;6.736;2023-06-04T12:48:51;23.10;99.90
59999;DHT22;45859;51.378;6.736;2023-06-04T12:51:17;23.00;99.90
59999;DHT22;45859;51.378;6.736;2023-06-04T12:53:43;22.90;99.90
59999;DHT22;45859;51.378;6.736;2023-06-04T12:56:09;22.80;99.90
59999;DHT22;45859;51.378;6.736;2023-06-04T12:58:35;22.80;99.90
59999;DHT22;45859;51.378;6.736;2023-06-04T13:01:01;22.60;99.90
59999;DHT22;45859;51.378;6.736;2023-06-04T13:03:27;22.60;99.90
59999;DHT22;45859;51.378;6.736;2023-06-04T13:05:53;22.70;99.90
59999;DHT22;45859;51.378;6.736;2023-06-04T13:08:22;22.80;99.90
59999;DHT22;45859;51.378;6.736;2023-06-04T13:10:49;22.80;99.90
59999;DHT22;45859;51.378;6.736;2023-06-04T13:13:15;22.80;99.90
59999;DHT22;45859;51.378;6.736;2023-06-04T13:15:42;22.70;99.90
59999;DHT22;45859;51.378;6.736;2023-06-04T13:18:08;22.70;99.90
59999;DHT22;45859;51.378;6.736;2023-06-04T13:20:35;22.70;99.90
59999;DHT22;45859;51.378;6.736;2023-06-04T13:23:00;22.80;99.90
59999;DHT22;45859;51.378;6.736;2023-06-04T13:25:26;22.90;99.90
59999;DHT22;45859;51.378;6.736;2023-06-04T13:27:54;22.90;99.90
59999;DHT22;45859;51.378;6.736;2023-06-04T13:30:20;22.70;99.90
59999;DHT22;45859;51.378;6.736;2023-06-04T13:32:46;22.70;99.90
59999;DHT22;45859;51.378;6.736;2023-06-04T13:35:12;22.70;99.90
59999;DHT22;45859;51.378;6.736;2023-06-04T13:37:37;22.80;99.90
59999;DHT22;45859;51.378;6.736;2023-06-04T13:40:03;22.90;99.90
59999;DHT22;45859;51.378;6.736;2023-06-04T13:42:29;23.10;99.90
59999;DHT22;45859;51.378;6.736;2023-06-04T13:44:54;22.90;99.90
59999;DHT22;45859;51.378;6.736;2023-06-04T13:47:20;22.90;99.90
59999;DHT22;45859;51.378;6.736;2023-06-04T13:49:47;22.90;99.90
59999;DHT22;45859;51.378;6.736;2023-06-04T13:52:13;23.00;99.90
59999;DHT22;45859;51.378;6.736;2023-06-04T13:54:38;23.00;99.90
59999;DHT22;45859;51.378;6.736;2023-06-04T13:57:04;22.90;99.90
59999;DHT22;45859;51.378;6.736;2023-06-04T13:59:32;23.00;99.90
59999;DHT22;45859;51.378;6.736;2023-06-04T14:01:58;23.00;99.90
59999;DHT22;45859;51.378;6.736;2023-06-04T14:04:23;23.10;99.90
59999;DHT22;45859;51.378;6.736;2023-06-04T14:06:49;23.00;99.90
59999;DHT22;45859;51.378;6.736;2023-06-04T14:09:15;22.90;99.90
59999;DHT22;45859;51.378;6.736;2023-06-04T14:11:41;22.70;99.90
59999;DHT22;45859;51.378;6.736;2023-06-04T14:14:07;22.80;99.90
59999;DHT22;45859;51.378;6.736;2023-06-04T14:16:32;22.70;99.90
59999;DHT22;45859;51.378;6.736;2023-06-04T14:18:59;22.70;99.90
59999;DHT22;45859;51.378;6.736;2023-06-04T14:21:26;22.70;99.90
59999;DHT22;45859;51.378;6.736;2023-06-04T14:23:51;22.90;99.90
59999;DHT22;45859;51.378;6.736;2023-06-04T14:26:17;22.90;99.90
59999;DHT22;45859;51.378;6.736;2023-06-04T14:28:43;23.00;99.90
59999;DHT22;45859;51.378;6.736;2023-06-04T14:31:10;23.00;99.90
59999;DHT22;45859;51.378;6.736;2023-06-04T14:33:35;23.10;99.90
59999;DHT22;45859;51.378;6.736;2023-06-04T14:36:03;23.20;99.90
59999;DHT22;45859;51.378;6.736;2023-06-04T14:38:28;23.10;99.90
59999;DHT22;45859;51.378;6.736;2023-06-04T14:40:55;23.00;99.90
59999;DHT22;45859;51.378;6.736;2023-06-04T14:43:25;22.80;99.90
59999;DHT22;45859;51.378;6.736;2023-06-04T14:45:50;22.90;99.90
59999;DHT22;45859;51.378;6.736;2023-06-04T14:48:16;22.90;99.90
59999;DHT22;45859;51.378;6.736;2023-06-04T14:50:42;22.90;99.90
59999;DHT22;45859;51.378;6.736;2023-06-04T14:53:08;23.00;99.90
59999;DHT22;45859;51.378;6.736;2023-06-04T14:55:34;23.00;99.90
59999;DHT22;45859;51.378;6.736;2023-06-04T14:58:00;23.00;99.90
59999;DHT22;45859;51.378;6.736;2023-06-04T15:00:26;22.90;99.90
59999;DHT22;45859;51.378;6.736;2023-06-04T15:02:51;23.00;99.90
59999;DHT22;45859;51.378;6.736;2023-06-04T15:05:17;23.10;99.90
59999;DHT22;45859;51.378;6.736;2023-06-04T15:07:43;23.00;99.90
59999;DHT22;45859;51.378;6.736;2023-06-04T15:10:08;23.00;99.90
59999;DHT22;45859;51.378;6.736;2023-06-04T15:12:34;23.00;99.90
59999;DHT22;45859;51.378;6.736;2023-06-04T15:15:04;23.00;99.90
59999;DHT22;45859;51.378;6.736;2023-06-04T15:17:30;23.00;99.90
59999;DHT22;45859;51.378;6.736;2023-06-04T15:19:56;23.00;99.90
59999;DHT22;45859;51.378;6.736;2023-06-04T15:22:22;23.00;99.90
59999;DHT22;45859;51.378;6.736;2023-06-04T15:24:47;23.10;99.90
59999;DHT22;45859;51.378;6.736;2023-06-04T15:27:13;23.00;99.90
59999;DHT22;45859;51.378;6.736;2023-06-04T15:29:39;23.00;99.90
59999;DHT22;45859;51.378;6.736;2023-06-04T15:32:04;23.00;99.90
59999;DHT22;45859;51.378;6.736;2023-06-04T15:34:30;22.90;99.90
59999;DHT22;45859;51.378;6.736;2023-06-04T15:36:56;22.90;99.90
59999;DHT22;45859;51.378;6.736;2023-06-04T15:39:21;23.00;99.90